Time;durP1;ratioP1;P1;durP2;ratioP2;P2;SDS_P1;SDS_P2;PMS_P1;PMS_P2;Temp;Humidity;BMP_temperature;BMP_pressure;BME280_temperature;BME280_humidity;BME280_pressure;Samples;Min_cycle;Max_cycle;Signal;HPM_P1;HPM_P2
2023/03/04 00:01:15;;;;;;;;;;;16.20;60.00;;;;;;10288639;28;96248;-73
2023/03/04 00:06:17;;;;;;;;;;;16.20;60.00;;;;;;10291210;28;94601;-72
2023/03/04 00:11:19;;;;;;;;;;;16.10;59.90;;;;;;10291371;28;94545;-72
2023/03/04 00:16:21;;;;;;;;;;;16.20;59.90;;;;;;10273057;28;94241;-72
2023/03/04 00:21:23;;;;;;;;;;;16.10;59.80;;;;;;10290714;28;93558;-72
2023/03/04 00:26:25;;;;;;;;;;;16.10;59.70;;;;;;10273130;28;94626;-72
2023/03/04 00:31:26;;;;;;;;;;;16.10;59.70;;;;;;10290315;28;93388;-72
2023/03/04 00:36:28;;;;;;;;;;;16.10;59.70;;;;;;10291357;28;93625;-73
2023/03/04 00:41:30;;;;;;;;;;;16.00;59.60;;;;;;10289509;28;93837;-73
2023/03/04 00:46:32;;;;;;;;;;;16.00;59.60;;;;;;10289686;28;94091;-72
2023/03/04 00:51:34;;;;;;;;;;;16.00;59.60;;;;;;10286807;28;96443;-72
2023/03/04 00:56:36;;;;;;;;;;;15.90;59.50;;;;;;10290237;28;93836;-72
2023/03/04 01:01:37;;;;;;;;;;;15.90;59.40;;;;;;10289855;28;93494;-72
2023/03/04 01:06:39;;;;;;;;;;;15.90;59.40;;;;;;10289142;28;93837;-73
2023/03/04 01:11:41;;;;;;;;;;;15.90;59.40;;;;;;10272109;28;94448;-73
2023/03/04 01:16:43;;;;;;;;;;;15.90;59.40;;;;;;10272249;28;93539;-73
2023/03/04 01:21:45;;;;;;;;;;;15.90;59.30;;;;;;10288277;28;93406;-72
2023/03/04 01:26:46;;;;;;;;;;;15.90;59.30;;;;;;10289441;28;92738;-73
2023/03/04 01:31:48;;;;;;;;;;;15.80;59.30;;;;;;10288735;28;92853;-73
2023/03/04 01:36:50;;;;;;;;;;;15.80;59.20;;;;;;10289421;28;94459;-73
2023/03/04 01:41:52;;;;;;;;;;;15.80;59.20;;;;;;10285271;28;96237;-73
2023/03/04 01:46:54;;;;;;;;;;;15.80;59.10;;;;;;10288552;28;94271;-73
2023/03/04 01:51:56;;;;;;;;;;;15.80;59.10;;;;;;10288134;28;93805;-73
2023/03/04 01:56:59;;;;;;;;;;;15.80;59.10;;;;;;10269479;28;93297;-73
2023/03/04 02:02:00;;;;;;;;;;;15.80;59.20;;;;;;10288457;28;94760;-72
2023/03/04 02:07:03;;;;;;;;;;;15.80;59.20;;;;;;10287796;28;94494;-72
2023/03/04 02:12:04;;;;;;;;;;;15.80;59.10;;;;;;10288125;28;92645;-73
2023/03/04 02:17:11;;;;;;;;;;;15.80;58.90;;;;;;10288348;28;93420;-72
2023/03/04 02:22:13;;;;;;;;;;;15.80;59.00;;;;;;10287604;28;93478;-73
2023/03/04 02:27:15;;;;;;;;;;;15.80;59.00;;;;;;10287202;28;93492;-72
2023/03/04 02:32:17;;;;;;;;;;;15.80;58.90;;;;;;10284703;28;96494;-72
2023/03/04 02:37:19;;;;;;;;;;;15.80;58.80;;;;;;10287725;28;94822;-72
2023/03/04 02:42:20;;;;;;;;;;;15.80;58.80;;;;;;10287856;28;94602;-72
2023/03/04 02:47:22;;;;;;;;;;;15.80;58.70;;;;;;10287065;28;93525;-73
2023/03/04 02:52:25;;;;;;;;;;;15.80;58.70;;;;;;10286689;28;93117;-72
2023/03/04 02:57:26;;;;;;;;;;;15.70;58.50;;;;;;10286782;28;93720;-72
2023/03/04 03:02:28;;;;;;;;;;;15.70;58.50;;;;;;10287442;28;94559;-72
2023/03/04 03:07:30;;;;;;;;;;;15.70;58.50;;;;;;10286827;28;92145;-72
2023/03/04 03:12:32;;;;;;;;;;;15.70;58.50;;;;;;10286528;28;93247;-73
2023/03/04 03:17:34;;;;;;;;;;;15.70;58.50;;;;;;10285977;28;93462;-72
2023/03/04 03:22:36;;;;;;;;;;;15.70;58.50;;;;;;10284943;28;95243;-72
2023/03/04 03:27:37;;;;;;;;;;;15.70;58.50;;;;;;10292734;28;93154;-72
2023/03/04 03:32:39;;;;;;;;;;;15.70;58.50;;;;;;10275074;28;93521;-73
2023/03/04 03:37:41;;;;;;;;;;;15.70;58.40;;;;;;10292938;28;93477;-72
2023/03/04 03:42:43;;;;;;;;;;;15.60;58.40;;;;;;10292179;28;93545;-72
2023/03/04 03:47:45;;;;;;;;;;;15.60;58.40;;;;;;10273774;28;93298;-72
2023/03/04 03:52:46;;;;;;;;;;;15.60;58.50;;;;;;10291895;28;94777;-72
2023/03/04 03:57:48;;;;;;;;;;;15.60;58.50;;;;;;10292470;28;94065;-71
2023/03/04 04:02:50;;;;;;;;;;;15.60;58.50;;;;;;10290935;28;93398;-72
2023/03/04 04:07:52;;;;;;;;;;;15.60;58.40;;;;;;10290947;28;94752;-72
2023/03/04 04:12:54;;;;;;;;;;;15.60;58.30;;;;;;10272386;28;96042;-72
2023/03/04 04:17:56;;;;;;;;;;;15.60;58.30;;;;;;10291818;28;93762;-72
2023/03/04 04:22:58;;;;;;;;;;;15.60;58.30;;;;;;10290640;28;94453;-72
2023/03/04 04:28:00;;;;;;;;;;;15.50;58.40;;;;;;10291738;28;97034;-72
2023/03/04 04:33:03;;;;;;;;;;;15.50;58.30;;;;;;10272939;28;93728;-72
2023/03/04 04:38:05;;;;;;;;;;;15.50;58.40;;;;;;10273034;28;94432;-72
2023/03/04 04:43:07;;;;;;;;;;;15.50;58.50;;;;;;10290134;28;93609;-72
2023/03/04 06:06:26;;;;;;;;;;;16.10;57.50;;;;;;10362564;28;94469;-72
2023/03/04 06:11:28;;;;;;;;;;;16.30;57.10;;;;;;10367641;28;96632;-72
2023/03/04 06:16:30;;;;;;;;;;;16.40;57.00;;;;;;10367699;28;93241;-72
2023/03/04 06:21:32;;;;;;;;;;;16.40;57.00;;;;;;10369506;28;92530;-72
2023/03/04 06:26:33;;;;;;;;;;;16.40;56.90;;;;;;10351044;28;93826;-72
2023/03/04 06:31:35;;;;;;;;;;;16.40;56.90;;;;;;10369134;28;94683;-72
2023/03/04 06:36:37;;;;;;;;;;;16.50;57.10;;;;;;10370399;28;93540;-72
2023/03/04 06:41:39;;;;;;;;;;;16.60;57.10;;;;;;10368098;28;93728;-72
2023/03/04 06:46:41;;;;;;;;;;;16.60;56.80;;;;;;10352051;28;92689;-72
2023/03/04 06:51:43;;;;;;;;;;;16.70;56.80;;;;;;10347360;28;94357;-72
2023/03/04 06:56:45;;;;;;;;;;;16.70;56.80;;;;;;10370258;28;94065;-74
2023/03/04 07:01:46;;;;;;;;;;;16.70;56.90;;;;;;10371835;28;95787;-72
2023/03/04 07:06:48;;;;;;;;;;;16.70;57.00;;;;;;10375379;28;94609;-73
2023/03/04 07:11:50;;;;;;;;;;;16.60;57.00;;;;;;10375159;28;94061;-74
2023/03/04 07:16:52;;;;;;;;;;;16.70;57.30;;;;;;10375394;28;94067;-73
2023/03/04 07:21:53;;;;;;;;;;;16.70;57.20;;;;;;10375856;28;93240;-73
2023/03/04 07:26:55;;;;;;;;;;;16.70;57.10;;;;;;10356745;28;92465;-73
2023/03/04 07:31:57;;;;;;;;;;;16.80;57.20;;;;;;10356385;28;93452;-73
2023/03/04 07:36:59;;;;;;;;;;;16.70;57.30;;;;;;10375643;28;93074;-73
2023/03/04 07:42:00;;;;;;;;;;;16.70;57.50;;;;;;10374275;28;93097;-73
2023/03/04 07:47:02;;;;;;;;;;;16.70;57.80;;;;;;10375071;28;94453;-73
2023/03/04 07:52:04;;;;;;;;;;;16.70;57.90;;;;;;10371882;28;96020;-73
2023/03/04 07:57:05;;;;;;;;;;;16.80;57.90;;;;;;10373807;28;94478;-72
2023/03/04 08:02:09;;;;;;;;;;;16.90;57.70;;;;;;10372525;28;94052;-73
2023/03/04 08:07:11;;;;;;;;;;;17.10;57.60;;;;;;10371082;28;93601;-73
2023/03/04 08:12:13;;;;;;;;;;;17.30;57.40;;;;;;10352994;28;95265;-72
2023/03/04 08:17:14;;;;;;;;;;;17.40;57.20;;;;;;10372115;28;93837;-73
2023/03/04 08:22:16;;;;;;;;;;;17.40;57.20;;;;;;10355026;28;94041;-72
2023/03/04 08:27:18;;;;;;;;;;;17.40;57.20;;;;;;10372378;28;92724;-73
2023/03/04 08:32:20;;;;;;;;;;;17.40;57.30;;;;;;10374719;28;94465;-73
2023/03/04 08:37:22;;;;;;;;;;;17.40;57.40;;;;;;10355919;28;95007;-73
2023/03/04 08:42:24;;;;;;;;;;;17.50;57.40;;;;;;10370104;28;96583;-77
2023/03/04 08:47:26;;;;;;;;;;;17.60;58.20;;;;;;10353730;28;93442;-73
2023/03/04 08:52:29;;;;;;;;;;;17.60;59.00;;;;;;10372821;28;94430;-74
2023/03/04 08:57:30;;;;;;;;;;;17.60;59.00;;;;;;10354388;28;94290;-74
2023/03/04 09:02:32;;;;;;;;;;;17.50;59.00;;;;;;10371669;28;95612;-75
2023/03/04 09:07:34;;;;;;;;;;;17.50;59.00;;;;;;10372399;28;93579;-74
2023/03/04 09:12:36;;;;;;;;;;;17.60;58.80;;;;;;10369453;28;94530;-74
2023/03/04 09:17:38;;;;;;;;;;;17.60;58.70;;;;;;10369254;28;93344;-74
2023/03/04 09:22:40;;;;;;;;;;;17.60;58.70;;;;;;10368995;28;94616;-75
2023/03/04 09:27:43;;;;;;;;;;;17.60;58.60;;;;;;10370849;28;93370;-75
2023/03/04 09:32:44;;;;;;;;;;;17.60;59.20;;;;;;10368810;28;95830;-72
2023/03/04 09:37:47;;;;;;;;;;;17.60;59.40;;;;;;10370483;28;94426;-73
2023/03/04 09:42:51;;;;;;;;;;;17.70;59.70;;;;;;10369455;28;93505;-71
2023/03/04 09:47:53;;;;;;;;;;;17.80;60.10;;;;;;10351791;28;92804;-70
2023/03/04 09:53:10;;;;;;;;;;;17.80;60.00;;;;;;10370221;28;93535;-68
2023/03/04 09:58:24;;;;;;;;;;;17.80;60.30;;;;;;10370770;28;95214;-66
2023/03/04 10:03:49;;;;;;;;;;;17.90;60.20;;;;;;10352492;28;93181;-67
2023/03/04 10:09:11;;;;;;;;;;;17.90;60.10;;;;;;10331362;28;92375;-65
2023/03/04 10:14:22;;;;;;;;;;;18.00;60.60;;;;;;10336888;28;94045;-68
2023/03/04 10:19:27;;;;;;;;;;;18.10;60.60;;;;;;10367654;28;94879;-70
2023/03/04 10:24:29;;;;;;;;;;;18.10;60.30;;;;;;10365668;28;95805;-69
2023/03/04 10:29:31;;;;;;;;;;;18.10;60.40;;;;;;10369417;28;93199;-71
2023/03/04 10:34:33;;;;;;;;;;;18.10;59.70;;;;;;10378329;28;94762;-76
2023/03/04 10:39:37;;;;;;;;;;;18.10;61.10;;;;;;10383140;28;94386;-76
2023/03/04 10:44:41;;;;;;;;;;;18.10;61.20;;;;;;10381389;28;93867;-71
2023/03/04 10:49:51;;;;;;;;;;;18.00;61.70;;;;;;10381578;28;93967;-72
2023/03/04 10:54:53;;;;;;;;;;;18.00;62.20;;;;;;10381061;28;93539;-71
2023/03/04 10:59:56;;;;;;;;;;;17.90;61.70;;;;;;10364751;28;93076;-71
2023/03/04 11:05:18;;;;;;;;;;;17.80;61.50;;;;;;10381992;28;94406;-71
2023/03/04 11:10:21;;;;;;;;;;;17.70;61.50;;;;;;10381823;28;93249;-71
2023/03/04 11:15:26;;;;;;;;;;;17.60;61.30;;;;;;10379111;28;95685;-71
2023/03/04 11:20:36;;;;;;;;;;;17.50;61.10;;;;;;10381160;28;93631;-70
2023/03/04 11:25:43;;;;;;;;;;;17.40;61.00;;;;;;10381830;28;94810;-70
2023/03/04 11:30:54;;;;;;;;;;;17.40;61.00;;;;;;10381484;28;93572;-70
2023/03/04 11:35:58;;;;;;;;;;;17.50;60.80;;;;;;10363138;28;93547;-70
2023/03/04 11:41:04;;;;;;;;;;;17.60;60.50;;;;;;10364032;28;94670;-70
2023/03/04 11:46:28;;;;;;;;;;;17.70;60.20;;;;;;10356720;28;93824;-70
2023/03/04 11:51:35;;;;;;;;;;;17.80;59.90;;;;;;10357287;28;93860;-70
2023/03/04 11:56:49;;;;;;;;;;;17.90;59.60;;;;;;10373647;28;94463;-70
2023/03/04 12:01:58;;;;;;;;;;;17.90;59.40;;;;;;10374306;28;94708;-70
2023/03/04 12:07:02;;;;;;;;;;;17.80;59.30;;;;;;10370771;28;95821;-70
2023/03/04 12:12:24;;;;;;;;;;;17.70;59.30;;;;;;10373436;28;93210;-71
2023/03/04 12:17:26;;;;;;;;;;;17.70;59.30;;;;;;10356282;28;93850;-71
2023/03/04 12:22:43;;;;;;;;;;;17.60;59.30;;;;;;10355299;28;96144;-76
2023/03/04 12:27:52;;;;;;;;;;;17.60;59.40;;;;;;10372217;28;93508;-69
2023/03/04 12:33:13;;;;;;;;;;;17.70;60.20;;;;;;10372547;28;93377;-69
2023/03/04 12:38:26;;;;;;;;;;;17.70;59.10;;;;;;10372617;28;94742;-70
2023/03/04 12:43:28;;;;;;;;;;;17.70;58.90;;;;;;10374212;28;92342;-69
2023/03/04 12:48:29;;;;;;;;;;;17.70;59.20;;;;;;10353681;28;93262;-69
2023/03/04 12:53:38;;;;;;;;;;;17.70;61.80;;;;;;10372481;28;93595;-69
2023/03/04 12:58:39;;;;;;;;;;;17.70;61.30;;;;;;10369193;28;96776;-73
2023/03/04 13:03:52;;;;;;;;;;;17.70;61.20;;;;;;10372967;28;94639;-70
2023/03/04 13:09:13;;;;;;;;;;;17.60;61.20;;;;;;10373044;28;93972;-71
2023/03/04 13:14:17;;;;;;;;;;;17.60;61.20;;;;;;10372282;28;93949;-69
2023/03/04 13:19:37;;;;;;;;;;;17.50;61.20;;;;;;10371959;28;94142;-69
2023/03/04 13:24:43;;;;;;;;;;;17.50;61.50;;;;;;10371530;28;93963;-70
2023/03/04 13:29:45;;;;;;;;;;;17.50;61.40;;;;;;10371787;28;94559;-66
2023/03/04 13:34:51;;;;;;;;;;;17.50;61.40;;;;;;10371858;28;91810;-69
2023/03/04 13:40:12;;;;;;;;;;;17.40;61.30;;;;;;10359700;28;94004;-70
2023/03/04 13:45:32;;;;;;;;;;;17.40;61.10;;;;;;10335553;28;94368;-69
2023/03/04 13:50:36;;;;;;;;;;;17.50;61.30;;;;;;10365077;28;95711;-69
2023/03/04 13:55:39;;;;;;;;;;;17.40;61.40;;;;;;10351569;28;93344;-69
2023/03/04 14:00:52;;;;;;;;;;;17.40;61.40;;;;;;10370506;28;93904;-69
2023/03/04 14:06:09;;;;;;;;;;;17.40;61.60;;;;;;10368631;28;93554;-70
2023/03/04 14:11:12;;;;;;;;;;;17.40;62.60;;;;;;10370340;28;94568;-69
2023/03/04 14:16:18;;;;;;;;;;;17.40;61.40;;;;;;10334009;28;93446;-70
2023/03/04 14:21:20;;;;;;;;;;;17.40;61.60;;;;;;10369583;28;93854;-69
2023/03/04 14:26:22;;;;;;;;;;;17.40;61.60;;;;;;10351958;28;92749;-69
2023/03/04 14:31:24;;;;;;;;;;;17.40;61.70;;;;;;10369048;28;94405;-69
2023/03/04 14:36:27;;;;;;;;;;;17.40;61.80;;;;;;10369569;28;94404;-68
2023/03/04 14:41:47;;;;;;;;;;;17.50;61.90;;;;;;10365758;28;96717;-68
2023/03/04 14:46:53;;;;;;;;;;;17.50;61.80;;;;;;10367635;28;94230;-68
2023/03/04 14:52:30;;;;;;;;;;;17.40;61.70;;;;;;10365748;28;93422;-68
2023/03/04 14:57:33;;;;;;;;;;;17.40;61.80;;;;;;10369224;28;94285;-69
2023/03/04 15:02:37;;;;;;;;;;;17.40;61.90;;;;;;10367887;28;94493;-67
2023/03/04 15:07:39;;;;;;;;;;;17.40;61.80;;;;;;10333561;28;93539;-67
2023/03/04 15:12:49;;;;;;;;;;;17.40;61.60;;;;;;10368773;28;93876;-68
2023/03/04 15:17:58;;;;;;;;;;;17.40;61.50;;;;;;10369950;28;93564;-67
2023/03/04 15:23:01;;;;;;;;;;;17.40;61.40;;;;;;10374402;28;94521;-68
2023/03/04 15:28:05;;;;;;;;;;;17.40;61.40;;;;;;10374304;28;93414;-68
2023/03/04 15:33:09;;;;;;;;;;;17.40;61.40;;;;;;10354974;28;96714;-68
2023/03/04 15:38:11;;;;;;;;;;;17.40;61.30;;;;;;10374246;28;93812;-68
2023/03/04 15:43:15;;;;;;;;;;;17.40;61.40;;;;;;10357639;28;93553;-68
2023/03/04 15:48:17;;;;;;;;;;;17.40;61.40;;;;;;10374227;28;93364;-68
2023/03/04 15:53:36;;;;;;;;;;;17.40;61.40;;;;;;10374093;28;93326;-69
2023/03/04 15:58:38;;;;;;;;;;;17.40;62.50;;;;;;10374478;28;93655;-69
2023/03/04 16:03:40;;;;;;;;;;;17.50;63.90;;;;;;10373895;28;93111;-71
2023/03/04 16:08:42;;;;;;;;;;;17.50;64.00;;;;;;10375354;28;93216;-69
2023/03/04 16:13:44;;;;;;;;;;;17.60;64.60;;;;;;10355296;28;93259;-69
2023/03/04 16:18:45;;;;;;;;;;;17.70;64.40;;;;;;10373705;28;93542;-71
2023/03/04 16:23:48;;;;;;;;;;;17.80;63.40;;;;;;10371549;28;95697;-71
2023/03/04 16:28:50;;;;;;;;;;;17.80;63.30;;;;;;10372579;28;92501;-71
2023/03/04 16:33:52;;;;;;;;;;;17.80;63.40;;;;;;10372955;28;92819;-70
2023/03/04 16:38:55;;;;;;;;;;;17.80;63.30;;;;;;10372719;28;94457;-68
2023/03/04 16:43:59;;;;;;;;;;;17.80;63.40;;;;;;10372766;28;93359;-65
2023/03/04 16:49:01;;;;;;;;;;;17.80;63.20;;;;;;10372266;28;94396;-70
2023/03/04 16:54:03;;;;;;;;;;;18.10;63.00;;;;;;10354154;28;93402;-70
2023/03/04 16:59:05;;;;;;;;;;;18.30;62.50;;;;;;10353026;28;92861;-72
2023/03/04 17:04:06;;;;;;;;;;;18.40;63.70;;;;;;10373428;28;93403;-70
2023/03/04 17:09:08;;;;;;;;;;;18.50;66.40;;;;;;10373056;28;93860;-69
2023/03/04 17:14:10;;;;;;;;;;;18.50;68.00;;;;;;10350936;28;96878;-68
2023/03/04 17:19:12;;;;;;;;;;;18.60;68.50;;;;;;10372470;28;94129;-70
2023/03/04 17:24:14;;;;;;;;;;;18.60;71.40;;;;;;10370797;28;94105;-68
2023/03/04 17:29:16;;;;;;;;;;;18.80;67.80;;;;;;10368495;28;93608;-67
2023/03/04 17:34:17;;;;;;;;;;;18.90;67.30;;;;;;10371388;28;94380;-68
2023/03/04 17:39:19;;;;;;;;;;;18.80;66.80;;;;;;10371320;28;94414;-68
2023/03/04 17:44:21;;;;;;;;;;;18.80;66.10;;;;;;10368901;28;93673;-68
2023/03/04 17:49:23;;;;;;;;;;;18.60;65.80;;;;;;10371043;28;91788;-67
2023/03/04 17:54:26;;;;;;;;;;;18.50;66.00;;;;;;10370228;28;94106;-67
2023/03/04 17:59:28;;;;;;;;;;;18.40;65.90;;;;;;10369861;28;93491;-67
2023/03/04 18:04:30;;;;;;;;;;;18.30;66.00;;;;;;10367408;28;95835;-67
2023/03/04 18:09:31;;;;;;;;;;;18.20;65.90;;;;;;10369857;28;93529;-68
2023/03/04 18:14:33;;;;;;;;;;;18.10;65.90;;;;;;10369089;28;93201;-68
2023/03/04 18:19:35;;;;;;;;;;;18.20;65.90;;;;;;10368994;28;93038;-68
2023/03/04 18:24:39;;;;;;;;;;;18.20;65.40;;;;;;10369517;28;93578;-67
2023/03/04 18:29:42;;;;;;;;;;;18.20;65.40;;;;;;10369877;28;93146;-67
2023/03/04 18:34:44;;;;;;;;;;;18.20;65.40;;;;;;10351653;28;93404;-67
2023/03/04 18:39:46;;;;;;;;;;;18.20;65.10;;;;;;10370376;28;95474;-67
2023/03/04 18:44:47;;;;;;;;;;;18.30;65.00;;;;;;10369784;28;94591;-67
2023/03/04 18:49:49;;;;;;;;;;;18.30;64.80;;;;;;10368384;28;94272;-67
2023/03/04 18:54:51;;;;;;;;;;;18.20;64.60;;;;;;10369032;28;95657;-67
2023/03/04 19:00:00;;;;;;;;;;;18.20;64.40;;;;;;10374843;28;93504;-67
2023/03/04 19:05:04;;;;;;;;;;;18.20;64.60;;;;;;10374516;28;94505;-67
2023/03/04 19:10:06;;;;;;;;;;;18.20;65.90;;;;;;10357299;28;92848;-68
2023/03/04 19:15:09;;;;;;;;;;;18.30;65.90;;;;;;10374551;28;93429;-67
2023/03/04 19:20:11;;;;;;;;;;;18.40;65.50;;;;;;10376179;28;94755;-67
2023/03/04 19:25:13;;;;;;;;;;;18.40;65.10;;;;;;10356487;28;94449;-72
2023/03/04 19:30:16;;;;;;;;;;;18.40;64.90;;;;;;10374203;28;93087;-67
2023/03/04 19:35:18;;;;;;;;;;;18.30;64.80;;;;;;10356064;28;93120;-66
2023/03/04 19:40:20;;;;;;;;;;;18.30;64.70;;;;;;10355964;28;94432;-66
2023/03/04 19:45:22;;;;;;;;;;;18.30;64.80;;;;;;10370752;28;95948;-66
2023/03/04 19:50:25;;;;;;;;;;;18.20;65.40;;;;;;10373557;28;94180;-68
2023/03/04 19:55:27;;;;;;;;;;;18.20;65.30;;;;;;10371245;28;93249;-68
2023/03/04 20:00:29;;;;;;;;;;;18.10;65.00;;;;;;10373776;28;93201;-69
2023/03/04 20:05:30;;;;;;;;;;;18.10;64.90;;;;;;10371722;28;92786;-68
2023/03/04 20:10:36;;;;;;;;;;;18.00;64.90;;;;;;10372173;28;93532;-68
2023/03/04 20:15:40;;;;;;;;;;;18.00;64.90;;;;;;10373186;28;94325;-69
2023/03/04 20:20:42;;;;;;;;;;;17.90;65.00;;;;;;10374087;28;93293;-68
2023/03/04 20:25:44;;;;;;;;;;;17.90;65.00;;;;;;10354652;28;94699;-69
2023/03/04 20:30:46;;;;;;;;;;;18.00;65.00;;;;;;10354915;28;93361;-69
2023/03/04 20:35:47;;;;;;;;;;;18.10;64.90;;;;;;10351697;28;95933;-69
2023/03/04 20:40:49;;;;;;;;;;;18.10;64.50;;;;;;10372617;28;94526;-69
2023/03/04 20:45:51;;;;;;;;;;;18.30;64.20;;;;;;10372225;28;94135;-69
2023/03/04 20:50:52;;;;;;;;;;;18.30;63.80;;;;;;10371254;28;93443;-69
2023/03/04 20:55:54;;;;;;;;;;;18.30;63.70;;;;;;10369823;28;93175;-69
2023/03/04 21:00:56;;;;;;;;;;;18.30;63.50;;;;;;10372314;28;94360;-69
2023/03/04 21:06:04;;;;;;;;;;;18.20;63.40;;;;;;10371936;28;94453;-69
2023/03/04 21:11:08;;;;;;;;;;;18.20;63.70;;;;;;10370782;28;92715;-69
2023/03/04 21:16:11;;;;;;;;;;;18.10;63.60;;;;;;10370382;28;92519;-69
2023/03/04 21:21:16;;;;;;;;;;;18.10;63.70;;;;;;10335944;28;93310;-67
2023/03/04 21:26:18;;;;;;;;;;;18.00;63.90;;;;;;10349918;28;95766;-67
2023/03/04 21:31:24;;;;;;;;;;;17.90;63.80;;;;;;10369917;28;94035;-67
2023/03/04 21:36:26;;;;;;;;;;;17.80;63.90;;;;;;10369874;28;94600;-68
2023/03/04 21:41:29;;;;;;;;;;;17.80;63.90;;;;;;10352768;28;93260;-67
2023/03/04 21:46:32;;;;;;;;;;;17.70;64.00;;;;;;10369930;28;94473;-68
2023/03/04 21:51:34;;;;;;;;;;;17.70;64.10;;;;;;10370684;28;94627;-67
2023/03/04 21:56:36;;;;;;;;;;;17.60;64.10;;;;;;10370327;28;93458;-67
2023/03/04 22:01:38;;;;;;;;;;;17.60;64.20;;;;;;10370779;28;92712;-67
2023/03/04 22:06:40;;;;;;;;;;;17.60;64.20;;;;;;10350851;28;93471;-67
2023/03/04 22:11:42;;;;;;;;;;;17.50;64.10;;;;;;10369302;28;95673;-68
2023/03/04 22:16:44;;;;;;;;;;;17.50;64.00;;;;;;10333205;28;96134;-68
2023/03/04 22:21:55;;;;;;;;;;;17.50;63.60;;;;;;10369219;28;94958;-68
2023/03/04 22:26:58;;;;;;;;;;;17.40;63.70;;;;;;10350771;28;94692;-68
2023/03/04 22:32:02;;;;;;;;;;;17.40;63.60;;;;;;10368149;28;113746;-68
2023/03/04 22:37:04;;;;;;;;;;;17.40;63.40;;;;;;10350403;28;93316;-69
2023/03/04 22:42:06;;;;;;;;;;;17.40;63.30;;;;;;10368204;28;93139;-68
2023/03/04 22:47:08;;;;;;;;;;;17.30;63.10;;;;;;10351199;28;94418;-68
2023/03/04 22:52:10;;;;;;;;;;;17.30;63.10;;;;;;10352154;28;93722;-68
2023/03/04 22:57:12;;;;;;;;;;;17.30;63.00;;;;;;10350893;28;95177;-69
2023/03/04 23:02:14;;;;;;;;;;;17.20;62.90;;;;;;10368727;28;94138;-68
2023/03/04 23:07:15;;;;;;;;;;;17.20;62.60;;;;;;10364599;28;96286;-69
2023/03/04 23:12:17;;;;;;;;;;;17.10;62.60;;;;;;10367456;28;93900;-68
2023/03/04 23:17:19;;;;;;;;;;;17.10;62.50;;;;;;10367863;28;94106;-68
2023/03/04 23:22:21;;;;;;;;;;;17.00;62.50;;;;;;10368312;28;94467;-68
2023/03/04 23:27:22;;;;;;;;;;;17.00;62.40;;;;;;10367455;28;93758;-68
2023/03/04 23:32:24;;;;;;;;;;;17.00;62.30;;;;;;10365888;28;94582;-68
2023/03/04 23:37:26;;;;;;;;;;;17.00;62.50;;;;;;10367179;28;93590;-68
2023/03/04 23:42:28;;;;;;;;;;;16.90;62.40;;;;;;10374776;28;92831;-68
2023/03/04 23:47:30;;;;;;;;;;;16.90;62.30;;;;;;10373456;28;93322;-68
2023/03/04 23:52:31;;;;;;;;;;;16.90;62.20;;;;;;10373644;28;93338;-69
2023/03/04 23:57:33;;;;;;;;;;;16.90;62.10;;;;;;10371044;28;95826;-68
